sensor_id;sensor_type;location;lat;lon;timestamp;P1;durP1;ratioP1;P2;durP2;ratioP2
17796;SDS011;55596;53.554;9.916;2023-02-28T00:00:17;3.50;;;1.53;;
17796;SDS011;55596;53.554;9.916;2023-02-28T00:02:45;3.73;;;1.50;;
17796;SDS011;55596;53.554;9.916;2023-02-28T00:05:14;4.90;;;1.63;;
17796;SDS011;55596;53.554;9.916;2023-02-28T00:07:44;4.17;;;1.53;;
17796;SDS011;55596;53.554;9.916;2023-02-28T00:10:13;4.77;;;1.90;;
17796;SDS011;55596;53.554;9.916;2023-02-28T00:12:44;5.20;;;1.70;;
17796;SDS011;55596;53.554;9.916;2023-02-28T00:15:12;4.80;;;1.60;;
17796;SDS011;55596;53.554;9.916;2023-02-28T00:17:39;2.53;;;1.50;;
17796;SDS011;55596;53.554;9.916;2023-02-28T00:20:08;4.43;;;1.60;;
17796;SDS011;55596;53.554;9.916;2023-02-28T00:22:37;4.37;;;1.47;;
17796;SDS011;55596;53.554;9.916;2023-02-28T00:25:05;5.60;;;1.40;;
17796;SDS011;55596;53.554;9.916;2023-02-28T00:27:35;7.27;;;2.00;;
17796;SDS011;55596;53.554;9.916;2023-02-28T00:30:02;5.43;;;1.90;;
17796;SDS011;55596;53.554;9.916;2023-02-28T00:32:31;2.83;;;1.57;;
17796;SDS011;55596;53.554;9.916;2023-02-28T00:34:59;3.40;;;1.40;;
17796;SDS011;55596;53.554;9.916;2023-02-28T00:37:27;3.87;;;1.70;;
17796;SDS011;55596;53.554;9.916;2023-02-28T00:39:54;3.53;;;1.30;;
17796;SDS011;55596;53.554;9.916;2023-02-28T00:42:21;3.43;;;1.70;;
17796;SDS011;55596;53.554;9.916;2023-02-28T00:44:50;7.67;;;2.10;;
17796;SDS011;55596;53.554;9.916;2023-02-28T00:47:17;3.77;;;1.70;;
17796;SDS011;55596;53.554;9.916;2023-02-28T00:49:44;4.00;;;1.90;;
17796;SDS011;55596;53.554;9.916;2023-02-28T00:52:12;7.30;;;1.90;;
17796;SDS011;55596;53.554;9.916;2023-02-28T00:54:39;3.37;;;1.90;;
17796;SDS011;55596;53.554;9.916;2023-02-28T00:57:06;3.07;;;1.80;;
17796;SDS011;55596;53.554;9.916;2023-02-28T00:59:33;3.97;;;1.93;;
17796;SDS011;55596;53.554;9.916;2023-02-28T01:02:02;4.70;;;2.00;;
17796;SDS011;55596;53.554;9.916;2023-02-28T01:04:29;4.80;;;1.80;;
17796;SDS011;55596;53.554;9.916;2023-02-28T01:06:56;6.93;;;2.23;;
17796;SDS011;55596;53.554;9.916;2023-02-28T01:09:23;5.57;;;1.97;;
17796;SDS011;55596;53.554;9.916;2023-02-28T01:11:51;4.50;;;1.70;;
17796;SDS011;55596;53.554;9.916;2023-02-28T01:14:18;5.10;;;2.13;;
17796;SDS011;55596;53.554;9.916;2023-02-28T01:16:45;3.47;;;1.83;;
17796;SDS011;55596;53.554;9.916;2023-02-28T01:19:14;3.93;;;1.87;;
17796;SDS011;55596;53.554;9.916;2023-02-28T01:21:41;7.23;;;2.67;;
17796;SDS011;55596;53.554;9.916;2023-02-28T01:24:08;7.53;;;2.60;;
17796;SDS011;55596;53.554;9.916;2023-02-28T01:26:36;5.10;;;2.30;;
17796;SDS011;55596;53.554;9.916;2023-02-28T01:29:03;4.63;;;2.20;;
17796;SDS011;55596;53.554;9.916;2023-02-28T01:31:30;3.50;;;1.83;;
17796;SDS011;55596;53.554;9.916;2023-02-28T01:33:57;6.10;;;2.20;;
17796;SDS011;55596;53.554;9.916;2023-02-28T01:36:26;6.70;;;1.97;;
17796;SDS011;55596;53.554;9.916;2023-02-28T01:38:53;5.53;;;2.37;;
17796;SDS011;55596;53.554;9.916;2023-02-28T01:41:21;6.07;;;2.27;;
17796;SDS011;55596;53.554;9.916;2023-02-28T01:43:53;8.30;;;2.17;;
17796;SDS011;55596;53.554;9.916;2023-02-28T01:46:20;3.57;;;1.90;;
17796;SDS011;55596;53.554;9.916;2023-02-28T01:48:52;11.23;;;2.50;;
17796;SDS011;55596;53.554;9.916;2023-02-28T01:51:20;8.57;;;2.00;;
17796;SDS011;55596;53.554;9.916;2023-02-28T01:53:51;4.97;;;2.50;;
17796;SDS011;55596;53.554;9.916;2023-02-28T01:56:21;9.90;;;2.50;;
17796;SDS011;55596;53.554;9.916;2023-02-28T01:58:49;6.53;;;2.17;;
17796;SDS011;55596;53.554;9.916;2023-02-28T02:01:17;5.03;;;2.60;;
17796;SDS011;55596;53.554;9.916;2023-02-28T02:03:47;4.07;;;1.77;;
17796;SDS011;55596;53.554;9.916;2023-02-28T02:06:20;4.13;;;2.30;;
17796;SDS011;55596;53.554;9.916;2023-02-28T02:08:47;4.23;;;1.93;;
17796;SDS011;55596;53.554;9.916;2023-02-28T02:11:17;5.03;;;2.53;;
17796;SDS011;55596;53.554;9.916;2023-02-28T02:13:49;4.53;;;2.27;;
17796;SDS011;55596;53.554;9.916;2023-02-28T02:16:26;5.97;;;2.70;;
17796;SDS011;55596;53.554;9.916;2023-02-28T02:18:57;5.50;;;2.70;;
17796;SDS011;55596;53.554;9.916;2023-02-28T02:21:55;4.03;;;2.70;;
17796;SDS011;55596;53.554;9.916;2023-02-28T02:30:00;5.80;;;2.70;;
17796;SDS011;55596;53.554;9.916;2023-02-28T02:32:37;4.60;;;2.40;;
17796;SDS011;55596;53.554;9.916;2023-02-28T02:35:11;8.17;;;2.60;;
17796;SDS011;55596;53.554;9.916;2023-02-28T02:37:40;6.40;;;2.37;;
17796;SDS011;55596;53.554;9.916;2023-02-28T02:40:11;4.07;;;2.27;;
17796;SDS011;55596;53.554;9.916;2023-02-28T02:42:41;3.97;;;2.20;;
17796;SDS011;55596;53.554;9.916;2023-02-28T02:45:11;6.03;;;2.57;;
17796;SDS011;55596;53.554;9.916;2023-02-28T02:47:41;4.97;;;2.23;;
17796;SDS011;55596;53.554;9.916;2023-02-28T02:50:12;6.47;;;2.53;;
17796;SDS011;55596;53.554;9.916;2023-02-28T02:52:42;4.93;;;2.50;;
17796;SDS011;55596;53.554;9.916;2023-02-28T02:55:11;6.53;;;2.60;;
17796;SDS011;55596;53.554;9.916;2023-02-28T02:57:40;5.57;;;2.30;;
17796;SDS011;55596;53.554;9.916;2023-02-28T03:00:10;6.13;;;2.80;;
17796;SDS011;55596;53.554;9.916;2023-02-28T03:02:37;5.57;;;2.70;;
17796;SDS011;55596;53.554;9.916;2023-02-28T03:05:07;7.43;;;3.10;;
17796;SDS011;55596;53.554;9.916;2023-02-28T03:07:36;6.63;;;2.83;;
17796;SDS011;55596;53.554;9.916;2023-02-28T03:12:48;6.97;;;3.10;;
17796;SDS011;55596;53.554;9.916;2023-02-28T03:15:19;5.37;;;2.93;;
17796;SDS011;55596;53.554;9.916;2023-02-28T03:17:58;7.40;;;3.27;;
17796;SDS011;55596;53.554;9.916;2023-02-28T03:20:33;6.10;;;3.30;;
17796;SDS011;55596;53.554;9.916;2023-02-28T03:23:06;7.93;;;2.93;;
17796;SDS011;55596;53.554;9.916;2023-02-28T03:25:37;7.57;;;3.43;;
17796;SDS011;55596;53.554;9.916;2023-02-28T03:28:08;8.83;;;3.63;;
17796;SDS011;55596;53.554;9.916;2023-02-28T03:30:41;6.33;;;3.10;;
17796;SDS011;55596;53.554;9.916;2023-02-28T03:33:10;8.33;;;3.70;;
17796;SDS011;55596;53.554;9.916;2023-02-28T03:35:41;6.67;;;3.27;;
17796;SDS011;55596;53.554;9.916;2023-02-28T03:38:12;9.17;;;3.80;;
17796;SDS011;55596;53.554;9.916;2023-02-28T03:40:42;7.70;;;3.67;;
17796;SDS011;55596;53.554;9.916;2023-02-28T03:43:10;9.60;;;3.97;;
17796;SDS011;55596;53.554;9.916;2023-02-28T03:45:40;7.63;;;3.67;;
17796;SDS011;55596;53.554;9.916;2023-02-28T03:48:09;8.53;;;3.73;;
17796;SDS011;55596;53.554;9.916;2023-02-28T03:50:39;9.13;;;4.13;;
17796;SDS011;55596;53.554;9.916;2023-02-28T03:53:08;8.23;;;3.73;;
17796;SDS011;55596;53.554;9.916;2023-02-28T03:55:40;7.97;;;4.17;;
17796;SDS011;55596;53.554;9.916;2023-02-28T03:58:11;8.33;;;4.13;;
17796;SDS011;55596;53.554;9.916;2023-02-28T04:00:40;13.10;;;4.57;;
17796;SDS011;55596;53.554;9.916;2023-02-28T04:03:09;5.70;;;4.20;;
17796;SDS011;55596;53.554;9.916;2023-02-28T04:05:44;10.30;;;4.40;;
17796;SDS011;55596;53.554;9.916;2023-02-28T04:08:13;7.77;;;4.13;;
17796;SDS011;55596;53.554;9.916;2023-02-28T04:10:42;7.77;;;4.93;;
17796;SDS011;55596;53.554;9.916;2023-02-28T04:13:10;7.20;;;4.40;;
17796;SDS011;55596;53.554;9.916;2023-02-28T04:15:37;11.50;;;5.13;;
17796;SDS011;55596;53.554;9.916;2023-02-28T04:18:04;10.03;;;4.87;;
17796;SDS011;55596;53.554;9.916;2023-02-28T04:20:32;9.67;;;5.00;;
17796;SDS011;55596;53.554;9.916;2023-02-28T04:22:59;8.57;;;5.40;;
17796;SDS011;55596;53.554;9.916;2023-02-28T04:25:26;9.83;;;5.80;;
17796;SDS011;55596;53.554;9.916;2023-02-28T04:27:55;10.00;;;5.47;;
17796;SDS011;55596;53.554;9.916;2023-02-28T04:30:22;10.60;;;5.97;;
17796;SDS011;55596;53.554;9.916;2023-02-28T04:32:49;9.23;;;5.37;;
17796;SDS011;55596;53.554;9.916;2023-02-28T04:35:16;10.10;;;5.53;;
17796;SDS011;55596;53.554;9.916;2023-02-28T04:37:44;11.10;;;5.93;;
17796;SDS011;55596;53.554;9.916;2023-02-28T04:40:11;8.90;;;5.47;;
17796;SDS011;55596;53.554;9.916;2023-02-28T04:42:38;7.83;;;5.17;;
17796;SDS011;55596;53.554;9.916;2023-02-28T04:45:08;9.20;;;5.70;;
17796;SDS011;55596;53.554;9.916;2023-02-28T04:47:36;13.70;;;6.20;;
17796;SDS011;55596;53.554;9.916;2023-02-28T04:50:03;8.47;;;5.23;;
17796;SDS011;55596;53.554;9.916;2023-02-28T04:52:30;10.87;;;5.43;;
17796;SDS011;55596;53.554;9.916;2023-02-28T04:54:58;10.47;;;5.73;;
17796;SDS011;55596;53.554;9.916;2023-02-28T04:57:25;11.17;;;6.53;;
17796;SDS011;55596;53.554;9.916;2023-02-28T04:59:52;10.53;;;6.53;;
17796;SDS011;55596;53.554;9.916;2023-02-28T05:02:21;11.70;;;6.93;;
17796;SDS011;55596;53.554;9.916;2023-02-28T05:04:48;10.93;;;6.00;;
17796;SDS011;55596;53.554;9.916;2023-02-28T05:07:15;10.27;;;5.80;;
17796;SDS011;55596;53.554;9.916;2023-02-28T05:09:43;12.40;;;5.53;;
17796;SDS011;55596;53.554;9.916;2023-02-28T05:12:10;13.97;;;6.43;;
17796;SDS011;55596;53.554;9.916;2023-02-28T05:14:37;12.87;;;6.10;;
17796;SDS011;55596;53.554;9.916;2023-02-28T05:17:04;13.13;;;6.20;;
17796;SDS011;55596;53.554;9.916;2023-02-28T05:19:33;9.53;;;6.37;;
17796;SDS011;55596;53.554;9.916;2023-02-28T05:22:00;10.40;;;6.63;;
17796;SDS011;55596;53.554;9.916;2023-02-28T05:24:27;12.97;;;7.13;;
17796;SDS011;55596;53.554;9.916;2023-02-28T05:26:55;11.80;;;7.07;;
17796;SDS011;55596;53.554;9.916;2023-02-28T05:29:23;18.47;;;7.33;;
17796;SDS011;55596;53.554;9.916;2023-02-28T05:31:50;11.87;;;6.77;;
17796;SDS011;55596;53.554;9.916;2023-02-28T05:34:17;11.03;;;6.77;;
17796;SDS011;55596;53.554;9.916;2023-02-28T05:36:46;11.93;;;6.80;;
17796;SDS011;55596;53.554;9.916;2023-02-28T05:39:13;10.00;;;6.43;;
17796;SDS011;55596;53.554;9.916;2023-02-28T05:41:41;12.93;;;6.87;;
17796;SDS011;55596;53.554;9.916;2023-02-28T05:44:08;11.27;;;7.50;;
17796;SDS011;55596;53.554;9.916;2023-02-28T05:46:35;11.33;;;7.20;;
17796;SDS011;55596;53.554;9.916;2023-02-28T05:49:03;10.73;;;6.93;;
17796;SDS011;55596;53.554;9.916;2023-02-28T05:51:34;13.43;;;7.77;;
17796;SDS011;55596;53.554;9.916;2023-02-28T05:54:11;11.90;;;7.87;;
17796;SDS011;55596;53.554;9.916;2023-02-28T05:56:39;11.00;;;6.87;;
17796;SDS011;55596;53.554;9.916;2023-02-28T05:59:09;10.63;;;7.53;;
17796;SDS011;55596;53.554;9.916;2023-02-28T06:01:37;17.10;;;7.97;;
17796;SDS011;55596;53.554;9.916;2023-02-28T06:04:05;13.57;;;7.87;;
17796;SDS011;55596;53.554;9.916;2023-02-28T06:06:33;14.40;;;7.43;;
17796;SDS011;55596;53.554;9.916;2023-02-28T06:09:01;15.00;;;8.23;;
17796;SDS011;55596;53.554;9.916;2023-02-28T06:11:30;14.53;;;8.43;;
17796;SDS011;55596;53.554;9.916;2023-02-28T06:13:57;25.13;;;9.13;;
17796;SDS011;55596;53.554;9.916;2023-02-28T06:16:25;15.43;;;8.97;;
17796;SDS011;55596;53.554;9.916;2023-02-28T06:18:53;20.80;;;9.10;;
17796;SDS011;55596;53.554;9.916;2023-02-28T06:21:22;20.37;;;8.87;;
17796;SDS011;55596;53.554;9.916;2023-02-28T06:23:49;13.93;;;7.67;;
17796;SDS011;55596;53.554;9.916;2023-02-28T06:26:16;13.80;;;7.60;;
17796;SDS011;55596;53.554;9.916;2023-02-28T06:28:45;17.50;;;7.97;;
17796;SDS011;55596;53.554;9.916;2023-02-28T06:31:15;19.77;;;8.27;;
17796;SDS011;55596;53.554;9.916;2023-02-28T06:33:43;22.07;;;11.50;;
17796;SDS011;55596;53.554;9.916;2023-02-28T06:36:11;17.37;;;8.80;;
17796;SDS011;55596;53.554;9.916;2023-02-28T06:38:39;18.53;;;9.23;;
17796;SDS011;55596;53.554;9.916;2023-02-28T06:41:06;13.63;;;9.00;;
17796;SDS011;55596;53.554;9.916;2023-02-28T06:43:35;14.40;;;8.73;;
17796;SDS011;55596;53.554;9.916;2023-02-28T06:46:06;21.83;;;10.23;;
17796;SDS011;55596;53.554;9.916;2023-02-28T06:48:33;15.33;;;10.07;;
17796;SDS011;55596;53.554;9.916;2023-02-28T06:51:01;14.80;;;8.90;;
17796;SDS011;55596;53.554;9.916;2023-02-28T06:53:28;16.73;;;8.93;;
17796;SDS011;55596;53.554;9.916;2023-02-28T06:55:55;15.57;;;8.93;;
17796;SDS011;55596;53.554;9.916;2023-02-28T06:58:23;12.70;;;8.07;;
17796;SDS011;55596;53.554;9.916;2023-02-28T07:00:50;10.97;;;7.67;;
17796;SDS011;55596;53.554;9.916;2023-02-28T07:03:19;16.90;;;8.93;;
17796;SDS011;55596;53.554;9.916;2023-02-28T07:05:48;14.43;;;8.17;;
17796;SDS011;55596;53.554;9.916;2023-02-28T07:08:15;13.80;;;7.90;;
17796;SDS011;55596;53.554;9.916;2023-02-28T07:10:43;13.30;;;7.93;;
17796;SDS011;55596;53.554;9.916;2023-02-28T07:13:10;14.20;;;7.83;;
17796;SDS011;55596;53.554;9.916;2023-02-28T07:15:38;15.90;;;8.73;;
17796;SDS011;55596;53.554;9.916;2023-02-28T07:18:05;17.10;;;8.70;;
17796;SDS011;55596;53.554;9.916;2023-02-28T07:20:33;21.30;;;9.80;;
17796;SDS011;55596;53.554;9.916;2023-02-28T07:23:01;12.37;;;8.10;;
17796;SDS011;55596;53.554;9.916;2023-02-28T07:25:28;15.97;;;9.30;;
17796;SDS011;55596;53.554;9.916;2023-02-28T07:27:55;14.83;;;7.93;;
17796;SDS011;55596;53.554;9.916;2023-02-28T07:30:24;18.53;;;8.70;;
17796;SDS011;55596;53.554;9.916;2023-02-28T07:32:51;16.23;;;8.30;;
17796;SDS011;55596;53.554;9.916;2023-02-28T07:35:19;22.17;;;8.73;;
17796;SDS011;55596;53.554;9.916;2023-02-28T07:37:48;16.87;;;8.30;;
17796;SDS011;55596;53.554;9.916;2023-02-28T07:40:15;24.97;;;7.83;;
17796;SDS011;55596;53.554;9.916;2023-02-28T07:42:43;12.43;;;6.47;;
17796;SDS011;55596;53.554;9.916;2023-02-28T07:45:10;13.23;;;6.07;;
17796;SDS011;55596;53.554;9.916;2023-02-28T07:47:38;17.40;;;5.27;;
17796;SDS011;55596;53.554;9.916;2023-02-28T07:50:05;16.17;;;5.13;;
17796;SDS011;55596;53.554;9.916;2023-02-28T07:52:33;13.33;;;5.50;;
17796;SDS011;55596;53.554;9.916;2023-02-28T07:55:02;8.27;;;3.60;;
17796;SDS011;55596;53.554;9.916;2023-02-28T07:57:29;13.67;;;4.37;;
17796;SDS011;55596;53.554;9.916;2023-02-28T07:59:57;5.77;;;3.50;;
17796;SDS011;55596;53.554;9.916;2023-02-28T08:02:24;8.10;;;3.23;;
17796;SDS011;55596;53.554;9.916;2023-02-28T08:04:51;4.57;;;2.73;;
17796;SDS011;55596;53.554;9.916;2023-02-28T08:07:19;8.77;;;2.80;;
17796;SDS011;55596;53.554;9.916;2023-02-28T08:09:46;4.57;;;2.63;;
17796;SDS011;55596;53.554;9.916;2023-02-28T08:12:15;7.20;;;2.80;;
17796;SDS011;55596;53.554;9.916;2023-02-28T08:14:42;5.87;;;2.30;;
17796;SDS011;55596;53.554;9.916;2023-02-28T08:17:09;4.50;;;2.50;;
17796;SDS011;55596;53.554;9.916;2023-02-28T08:19:36;6.00;;;3.03;;
17796;SDS011;55596;53.554;9.916;2023-02-28T08:22:04;3.87;;;2.30;;
17796;SDS011;55596;53.554;9.916;2023-02-28T08:24:31;8.53;;;2.67;;
17796;SDS011;55596;53.554;9.916;2023-02-28T08:26:58;9.87;;;3.10;;
17796;SDS011;55596;53.554;9.916;2023-02-28T08:29:27;6.13;;;2.30;;
17796;SDS011;55596;53.554;9.916;2023-02-28T08:31:55;4.50;;;2.30;;
17796;SDS011;55596;53.554;9.916;2023-02-28T08:34:23;6.20;;;2.40;;
17796;SDS011;55596;53.554;9.916;2023-02-28T08:36:51;4.57;;;2.53;;
17796;SDS011;55596;53.554;9.916;2023-02-28T08:39:18;4.23;;;2.03;;
17796;SDS011;55596;53.554;9.916;2023-02-28T08:41:45;7.23;;;2.67;;
17796;SDS011;55596;53.554;9.916;2023-02-28T08:44:13;7.28;;;2.58;;
17796;SDS011;55596;53.554;9.916;2023-02-28T08:46:41;5.20;;;2.00;;
17796;SDS011;55596;53.554;9.916;2023-02-28T08:49:09;6.63;;;2.53;;
17796;SDS011;55596;53.554;9.916;2023-02-28T08:51:37;4.10;;;2.10;;
17796;SDS011;55596;53.554;9.916;2023-02-28T08:54:05;5.93;;;2.20;;
17796;SDS011;55596;53.554;9.916;2023-02-28T08:56:32;3.57;;;2.17;;
17796;SDS011;55596;53.554;9.916;2023-02-28T08:58:59;6.70;;;1.70;;
17796;SDS011;55596;53.554;9.916;2023-02-28T09:01:27;5.57;;;1.37;;
17796;SDS011;55596;53.554;9.916;2023-02-28T09:03:55;2.53;;;1.40;;
17796;SDS011;55596;53.554;9.916;2023-02-28T09:06:23;3.63;;;1.53;;
17796;SDS011;55596;53.554;9.916;2023-02-28T09:08:50;5.47;;;1.63;;
17796;SDS011;55596;53.554;9.916;2023-02-28T09:11:18;6.40;;;2.03;;
17796;SDS011;55596;53.554;9.916;2023-02-28T09:13:45;2.80;;;1.40;;
17796;SDS011;55596;53.554;9.916;2023-02-28T09:16:13;3.40;;;1.40;;
17796;SDS011;55596;53.554;9.916;2023-02-28T09:18:41;3.40;;;1.50;;
17796;SDS011;55596;53.554;9.916;2023-02-28T09:21:10;2.53;;;1.27;;
17796;SDS011;55596;53.554;9.916;2023-02-28T09:23:39;1.87;;;1.17;;
17796;SDS011;55596;53.554;9.916;2023-02-28T09:26:07;1.97;;;1.10;;
17796;SDS011;55596;53.554;9.916;2023-02-28T09:28:34;2.40;;;1.30;;
17796;SDS011;55596;53.554;9.916;2023-02-28T09:31:01;2.40;;;1.00;;
17796;SDS011;55596;53.554;9.916;2023-02-28T09:33:29;5.57;;;1.40;;
17796;SDS011;55596;53.554;9.916;2023-02-28T09:35:57;2.70;;;1.20;;
17796;SDS011;55596;53.554;9.916;2023-02-28T09:38:27;4.77;;;0.97;;
17796;SDS011;55596;53.554;9.916;2023-02-28T09:40:56;3.93;;;1.20;;
17796;SDS011;55596;53.554;9.916;2023-02-28T09:43:25;4.00;;;1.00;;
17796;SDS011;55596;53.554;9.916;2023-02-28T09:45:54;3.97;;;1.30;;
17796;SDS011;55596;53.554;9.916;2023-02-28T09:48:26;2.40;;;1.10;;
17796;SDS011;55596;53.554;9.916;2023-02-28T09:50:55;1.40;;;0.87;;
17796;SDS011;55596;53.554;9.916;2023-02-28T09:53:28;1.97;;;0.87;;
17796;SDS011;55596;53.554;9.916;2023-02-28T09:55:59;4.53;;;0.90;;
17796;SDS011;55596;53.554;9.916;2023-02-28T09:58:28;1.60;;;0.73;;
17796;SDS011;55596;53.554;9.916;2023-02-28T10:01:00;0.80;;;0.40;;
17796;SDS011;55596;53.554;9.916;2023-02-28T10:03:31;1.80;;;0.80;;
17796;SDS011;55596;53.554;9.916;2023-02-28T10:06:01;0.47;;;0.47;;
17796;SDS011;55596;53.554;9.916;2023-02-28T10:08:34;2.87;;;0.93;;
17796;SDS011;55596;53.554;9.916;2023-02-28T10:11:06;2.37;;;0.90;;
17796;SDS011;55596;53.554;9.916;2023-02-28T10:13:35;1.23;;;0.70;;
17796;SDS011;55596;53.554;9.916;2023-02-28T10:16:03;4.30;;;0.90;;
17796;SDS011;55596;53.554;9.916;2023-02-28T10:18:38;2.03;;;0.93;;
17796;SDS011;55596;53.554;9.916;2023-02-28T10:21:08;1.27;;;0.53;;
17796;SDS011;55596;53.554;9.916;2023-02-28T10:23:42;1.80;;;0.90;;
17796;SDS011;55596;53.554;9.916;2023-02-28T10:26:11;2.40;;;0.80;;
17796;SDS011;55596;53.554;9.916;2023-02-28T10:28:38;4.93;;;0.70;;
17796;SDS011;55596;53.554;9.916;2023-02-28T10:31:06;5.23;;;0.70;;
17796;SDS011;55596;53.554;9.916;2023-02-28T10:33:35;2.97;;;0.83;;
17796;SDS011;55596;53.554;9.916;2023-02-28T10:36:03;1.80;;;0.80;;
17796;SDS011;55596;53.554;9.916;2023-02-28T10:38:33;1.80;;;0.90;;
17796;SDS011;55596;53.554;9.916;2023-02-28T10:41:06;2.63;;;1.00;;
17796;SDS011;55596;53.554;9.916;2023-02-28T10:43:34;2.83;;;1.37;;
17796;SDS011;55596;53.554;9.916;2023-02-28T10:46:03;2.50;;;1.20;;
17796;SDS011;55596;53.554;9.916;2023-02-28T10:48:34;4.70;;;1.53;;
17796;SDS011;55596;53.554;9.916;2023-02-28T10:51:03;3.13;;;1.53;;
17796;SDS011;55596;53.554;9.916;2023-02-28T10:53:31;5.57;;;1.40;;
17796;SDS011;55596;53.554;9.916;2023-02-28T10:56:00;4.13;;;1.60;;
17796;SDS011;55596;53.554;9.916;2023-02-28T10:58:29;2.50;;;1.30;;
17796;SDS011;55596;53.554;9.916;2023-02-28T11:00:57;2.80;;;1.10;;
17796;SDS011;55596;53.554;9.916;2023-02-28T11:03:29;2.10;;;1.07;;
17796;SDS011;55596;53.554;9.916;2023-02-28T11:05:57;2.73;;;1.20;;
17796;SDS011;55596;53.554;9.916;2023-02-28T11:08:24;5.30;;;1.17;;
17796;SDS011;55596;53.554;9.916;2023-02-28T11:10:55;5.20;;;1.30;;
17796;SDS011;55596;53.554;9.916;2023-02-28T11:13:25;9.30;;;2.00;;
17796;SDS011;55596;53.554;9.916;2023-02-28T11:15:55;2.37;;;1.20;;
17796;SDS011;55596;53.554;9.916;2023-02-28T11:18:24;3.03;;;1.30;;
17796;SDS011;55596;53.554;9.916;2023-02-28T11:20:53;2.73;;;1.23;;
17796;SDS011;55596;53.554;9.916;2023-02-28T11:23:21;4.93;;;1.20;;
17796;SDS011;55596;53.554;9.916;2023-02-28T11:25:52;2.23;;;1.00;;
17796;SDS011;55596;53.554;9.916;2023-02-28T11:28:28;3.60;;;1.10;;
17796;SDS011;55596;53.554;9.916;2023-02-28T11:31:03;2.37;;;1.13;;
17796;SDS011;55596;53.554;9.916;2023-02-28T11:33:31;2.93;;;1.43;;
17796;SDS011;55596;53.554;9.916;2023-02-28T11:36:00;5.60;;;1.20;;
17796;SDS011;55596;53.554;9.916;2023-02-28T11:38:28;4.17;;;0.97;;
17796;SDS011;55596;53.554;9.916;2023-02-28T11:43:46;4.60;;;1.23;;
17796;SDS011;55596;53.554;9.916;2023-02-28T11:46:27;3.70;;;1.57;;
17796;SDS011;55596;53.554;9.916;2023-02-28T11:49:01;5.33;;;1.23;;
17796;SDS011;55596;53.554;9.916;2023-02-28T11:51:32;5.50;;;1.30;;
17796;SDS011;55596;53.554;9.916;2023-02-28T11:54:07;5.63;;;1.77;;
17796;SDS011;55596;53.554;9.916;2023-02-28T11:56:39;2.63;;;1.40;;
17796;SDS011;55596;53.554;9.916;2023-02-28T11:59:19;3.50;;;1.50;;
17796;SDS011;55596;53.554;9.916;2023-02-28T12:02:06;3.37;;;1.13;;
17796;SDS011;55596;53.554;9.916;2023-02-28T12:04:52;4.07;;;1.47;;
17796;SDS011;55596;53.554;9.916;2023-02-28T12:07:35;2.87;;;1.20;;
17796;SDS011;55596;53.554;9.916;2023-02-28T12:10:11;1.93;;;1.20;;
17796;SDS011;55596;53.554;9.916;2023-02-28T12:12:51;3.80;;;1.30;;
17796;SDS011;55596;53.554;9.916;2023-02-28T12:15:42;6.80;;;1.40;;
17796;SDS011;55596;53.554;9.916;2023-02-28T12:18:30;6.10;;;1.40;;
17796;SDS011;55596;53.554;9.916;2023-02-28T12:21:10;3.93;;;1.60;;
17796;SDS011;55596;53.554;9.916;2023-02-28T12:23:51;2.73;;;1.30;;
17796;SDS011;55596;53.554;9.916;2023-02-28T12:26:42;3.87;;;1.30;;
17796;SDS011;55596;53.554;9.916;2023-02-28T12:29:14;3.73;;;1.50;;
17796;SDS011;55596;53.554;9.916;2023-02-28T12:31:44;3.20;;;1.48;;
17796;SDS011;55596;53.554;9.916;2023-02-28T12:34:15;4.75;;;1.55;;
17796;SDS011;55596;53.554;9.916;2023-02-28T12:36:46;4.90;;;1.67;;
17796;SDS011;55596;53.554;9.916;2023-02-28T12:39:15;4.32;;;1.70;;
17796;SDS011;55596;53.554;9.916;2023-02-28T12:41:48;4.60;;;1.30;;
17796;SDS011;55596;53.554;9.916;2023-02-28T12:44:21;10.13;;;1.67;;
17796;SDS011;55596;53.554;9.916;2023-02-28T12:46:50;3.70;;;1.75;;
17796;SDS011;55596;53.554;9.916;2023-02-28T12:49:21;2.45;;;1.70;;
17796;SDS011;55596;53.554;9.916;2023-02-28T12:51:55;3.17;;;1.52;;
17796;SDS011;55596;53.554;9.916;2023-02-28T12:54:25;3.65;;;1.58;;
17796;SDS011;55596;53.554;9.916;2023-02-28T12:57:00;5.38;;;1.83;;
17796;SDS011;55596;53.554;9.916;2023-02-28T12:59:34;3.60;;;1.90;;
17796;SDS011;55596;53.554;9.916;2023-02-28T13:02:25;4.28;;;1.98;;
17796;SDS011;55596;53.554;9.916;2023-02-28T13:05:26;7.28;;;1.80;;
17796;SDS011;55596;53.554;9.916;2023-02-28T13:08:20;5.35;;;1.85;;
17796;SDS011;55596;53.554;9.916;2023-02-28T13:11:01;3.60;;;1.70;;
17796;SDS011;55596;53.554;9.916;2023-02-28T13:13:29;5.10;;;1.73;;
17796;SDS011;55596;53.554;9.916;2023-02-28T13:16:04;7.20;;;1.88;;
17796;SDS011;55596;53.554;9.916;2023-02-28T13:18:34;7.20;;;2.03;;
17796;SDS011;55596;53.554;9.916;2023-02-28T13:21:06;3.22;;;1.52;;
17796;SDS011;55596;53.554;9.916;2023-02-28T13:23:56;2.63;;;1.27;;
17796;SDS011;55596;53.554;9.916;2023-02-28T13:29:28;2.58;;;1.38;;
17796;SDS011;55596;53.554;9.916;2023-02-28T13:44:08;3.15;;;1.50;;
17796;SDS011;55596;53.554;9.916;2023-02-28T13:46:38;16.92;;;2.05;;
17796;SDS011;55596;53.554;9.916;2023-02-28T13:49:42;3.97;;;1.55;;
17796;SDS011;55596;53.554;9.916;2023-02-28T13:52:10;7.88;;;1.80;;
17796;SDS011;55596;53.554;9.916;2023-02-28T13:54:48;4.07;;;1.88;;
17796;SDS011;55596;53.554;9.916;2023-02-28T13:57:29;3.78;;;1.73;;
17796;SDS011;55596;53.554;9.916;2023-02-28T14:00:08;6.90;;;1.80;;
17796;SDS011;55596;53.554;9.916;2023-02-28T14:03:01;3.53;;;1.60;;
17796;SDS011;55596;53.554;9.916;2023-02-28T14:05:40;11.00;;;2.45;;
17796;SDS011;55596;53.554;9.916;2023-02-28T14:08:08;7.13;;;2.05;;
17796;SDS011;55596;53.554;9.916;2023-02-28T14:10:43;4.10;;;1.85;;
17796;SDS011;55596;53.554;9.916;2023-02-28T14:13:12;4.45;;;1.77;;
17796;SDS011;55596;53.554;9.916;2023-02-28T14:15:55;5.63;;;1.50;;
17796;SDS011;55596;53.554;9.916;2023-02-28T14:18:24;2.88;;;1.65;;
17796;SDS011;55596;53.554;9.916;2023-02-28T14:20:55;7.00;;;1.80;;
17796;SDS011;55596;53.554;9.916;2023-02-28T14:23:33;4.90;;;1.75;;
17796;SDS011;55596;53.554;9.916;2023-02-28T14:26:25;6.00;;;1.95;;
17796;SDS011;55596;53.554;9.916;2023-02-28T14:29:17;6.53;;;1.63;;
17796;SDS011;55596;53.554;9.916;2023-02-28T14:31:55;4.63;;;1.90;;
17796;SDS011;55596;53.554;9.916;2023-02-28T14:34:34;5.80;;;2.22;;
17796;SDS011;55596;53.554;9.916;2023-02-28T14:37:09;3.60;;;1.70;;
17796;SDS011;55596;53.554;9.916;2023-02-28T14:39:41;7.03;;;1.45;;
17796;SDS011;55596;53.554;9.916;2023-02-28T14:42:31;6.80;;;1.50;;
17796;SDS011;55596;53.554;9.916;2023-02-28T14:44:59;3.22;;;1.85;;
17796;SDS011;55596;53.554;9.916;2023-02-28T14:47:27;10.25;;;2.35;;
17796;SDS011;55596;53.554;9.916;2023-02-28T14:49:57;4.80;;;1.67;;
17796;SDS011;55596;53.554;9.916;2023-02-28T14:52:26;5.20;;;1.60;;
17796;SDS011;55596;53.554;9.916;2023-02-28T14:54:55;5.38;;;2.67;;
17796;SDS011;55596;53.554;9.916;2023-02-28T14:57:25;5.47;;;2.80;;
17796;SDS011;55596;53.554;9.916;2023-02-28T14:59:59;3.88;;;1.95;;
17796;SDS011;55596;53.554;9.916;2023-02-28T15:02:29;2.50;;;1.50;;
17796;SDS011;55596;53.554;9.916;2023-02-28T15:04:58;3.13;;;1.70;;
17796;SDS011;55596;53.554;9.916;2023-02-28T15:07:27;4.00;;;1.60;;
17796;SDS011;55596;53.554;9.916;2023-02-28T15:12:45;6.47;;;2.20;;
17796;SDS011;55596;53.554;9.916;2023-02-28T15:15:20;4.60;;;1.73;;
17796;SDS011;55596;53.554;9.916;2023-02-28T15:17:49;6.13;;;1.97;;
17796;SDS011;55596;53.554;9.916;2023-02-28T15:20:18;3.43;;;1.70;;
17796;SDS011;55596;53.554;9.916;2023-02-28T15:22:46;8.67;;;1.90;;
17796;SDS011;55596;53.554;9.916;2023-02-28T15:25:18;3.80;;;1.60;;
17796;SDS011;55596;53.554;9.916;2023-02-28T15:27:48;6.63;;;1.83;;
17796;SDS011;55596;53.554;9.916;2023-02-28T15:30:16;6.40;;;1.93;;
17796;SDS011;55596;53.554;9.916;2023-02-28T15:32:47;4.23;;;2.10;;